createdAt,value
2017-04-14T00:00:08.823Z,0
2017-04-14T00:01:19.848Z,0
2017-04-14T00:02:30.870Z,0
2017-04-14T00:03:42.315Z,0
2017-04-14T00:04:53.342Z,0
2017-04-14T00:06:04.420Z,0
2017-04-14T00:07:15.432Z,0
2017-04-14T00:08:26.468Z,0
2017-04-14T00:09:37.701Z,0
2017-04-14T00:10:48.731Z,0
2017-04-14T00:11:59.758Z,0
2017-04-14T00:13:10.790Z,0
2017-04-14T00:14:21.831Z,0
2017-04-14T00:15:32.860Z,0
2017-04-14T00:16:43.934Z,0
2017-04-14T00:17:54.965Z,0
2017-04-14T00:19:05.998Z,0
2017-04-14T00:20:17.068Z,0
2017-04-14T00:21:28.104Z,0
2017-04-14T00:22:39.193Z,0
2017-04-14T00:23:50.246Z,0
2017-04-14T00:25:01.285Z,0
2017-04-14T00:26:12.522Z,0
2017-04-14T00:27:23.563Z,0
2017-04-14T00:28:34.595Z,0
2017-04-14T00:29:45.627Z,0
2017-04-14T00:30:56.664Z,0
2017-04-14T00:32:07.690Z,0
2017-04-14T00:33:18.771Z,0
2017-04-14T00:34:29.818Z,0
2017-04-14T00:35:40.837Z,0
2017-04-14T00:36:52.062Z,0
2017-04-14T00:38:03.100Z,0
2017-04-14T00:39:14.132Z,0
2017-04-14T00:40:25.166Z,0
2017-04-14T00:41:36.211Z,0
2017-04-14T00:42:47.239Z,0
2017-04-14T00:43:58.725Z,0
2017-04-14T00:45:09.755Z,0
2017-04-14T00:46:20.786Z,0
2017-04-14T00:47:32.024Z,0
2017-04-14T00:48:43.061Z,0
2017-04-14T00:49:54.088Z,0
2017-04-14T00:51:05.117Z,0
2017-04-14T00:52:16.141Z,0
2017-04-14T00:53:27.160Z,0
2017-04-14T00:54:38.266Z,0
2017-04-14T00:55:49.298Z,0
2017-04-14T00:57:00.328Z,0
2017-04-14T00:58:11.354Z,0
2017-04-14T00:59:22.585Z,0
2017-04-14T01:00:33.806Z,0
2017-04-14T01:01:45.033Z,0
2017-04-14T01:02:56.073Z,0
2017-04-14T01:04:07.102Z,0
2017-04-14T01:05:18.364Z,0
2017-04-14T01:06:29.596Z,0
2017-04-14T01:07:40.624Z,0
2017-04-14T01:08:51.654Z,0
2017-04-14T01:10:02.704Z,0
2017-04-14T01:11:13.922Z,0
2017-04-14T01:12:24.958Z,0
2017-04-14T01:13:35.984Z,0
2017-04-14T01:14:47.020Z,0
2017-04-14T01:15:58.044Z,0
2017-04-14T01:17:09.270Z,0
2017-04-14T01:18:20.295Z,0
2017-04-14T01:19:31.331Z,0
2017-04-14T01:20:42.554Z,0
2017-04-14T01:21:53.630Z,0
2017-04-14T01:23:04.657Z,0
2017-04-14T01:24:15.886Z,0
2017-04-14T01:25:26.912Z,0
2017-04-14T01:26:37.935Z,0
2017-04-14T01:27:49.384Z,0
2017-04-14T01:29:00.406Z,0
2017-04-14T01:30:11.430Z,0
2017-04-14T01:31:22.450Z,0
2017-04-14T01:32:33.729Z,0
2017-04-14T01:33:44.760Z,0
2017-04-14T01:34:55.989Z,0
2017-04-14T01:36:07.023Z,0
2017-04-14T01:37:18.052Z,0
2017-04-14T01:38:29.091Z,0
2017-04-14T01:39:40.314Z,0
2017-04-14T01:40:51.352Z,0
2017-04-14T01:42:02.394Z,0
2017-04-14T01:43:13.485Z,0
2017-04-14T01:44:24.507Z,0
2017-04-14T01:45:35.537Z,0
2017-04-14T01:46:46.774Z,0
2017-04-14T01:47:57.808Z,0
2017-04-14T01:49:09.099Z,0
2017-04-14T01:50:20.139Z,0
2017-04-14T01:51:31.162Z,0
2017-04-14T01:52:42.393Z,0
2017-04-14T01:53:53.432Z,0
2017-04-14T01:55:04.470Z,0
2017-04-14T01:56:15.505Z,0
2017-04-14T01:57:26.535Z,0
2017-04-14T01:58:37.564Z,0
2017-04-14T01:59:48.849Z,0
2017-04-14T02:01:00.080Z,0
2017-04-14T02:02:11.115Z,0
2017-04-14T02:03:22.146Z,0
2017-04-14T02:04:33.181Z,0
2017-04-14T02:05:44.406Z,0
2017-04-14T02:06:55.456Z,0
2017-04-14T02:08:06.673Z,0
2017-04-14T02:09:17.702Z,0
2017-04-14T02:10:28.773Z,0
2017-04-14T02:11:39.789Z,0
2017-04-14T02:12:51.039Z,0
2017-04-14T02:14:02.063Z,0
2017-04-14T02:15:13.090Z,0
2017-04-14T02:16:24.310Z,0
2017-04-14T02:17:35.335Z,0
2017-04-14T02:18:46.566Z,0
2017-04-14T02:19:57.606Z,0
2017-04-14T02:21:08.686Z,0
2017-04-14T02:22:19.718Z,0
2017-04-14T02:23:30.941Z,0
2017-04-14T02:24:42.169Z,0
2017-04-14T02:25:53.404Z,0
2017-04-14T02:27:04.445Z,0
2017-04-14T02:28:15.514Z,0
2017-04-14T02:29:26.551Z,0
2017-04-14T02:30:37.570Z,0
2017-04-14T02:31:48.842Z,0
2017-04-14T02:32:59.866Z,0
2017-04-14T02:34:11.095Z,0
2017-04-14T02:35:22.330Z,0
2017-04-14T02:36:33.351Z,0
2017-04-14T02:37:44.379Z,0
2017-04-14T02:38:55.426Z,0
2017-04-14T02:40:06.458Z,0
2017-04-14T02:41:17.495Z,0
2017-04-14T02:42:28.572Z,0
2017-04-14T02:43:39.596Z,0
2017-04-14T02:44:50.851Z,0
2017-04-14T02:46:01.865Z,0
2017-04-14T02:47:12.892Z,0
2017-04-14T02:48:23.921Z,0
2017-04-14T02:49:35.141Z,0
2017-04-14T02:50:46.370Z,0
2017-04-14T02:51:57.396Z,0
2017-04-14T02:53:08.483Z,0
2017-04-14T02:54:19.715Z,0
2017-04-14T02:55:30.742Z,0
2017-04-14T02:56:41.763Z,0
2017-04-14T02:57:52.982Z,0
2017-04-14T02:59:04.020Z,0
2017-04-14T03:00:15.042Z,0
2017-04-14T03:01:26.069Z,0
2017-04-14T03:02:37.089Z,0
2017-04-14T03:03:48.176Z,0
2017-04-14T03:04:59.202Z,0
2017-04-14T03:06:10.212Z,0
2017-04-14T03:07:21.249Z,0
2017-04-14T03:08:32.280Z,0
2017-04-14T03:09:43.300Z,0
2017-04-14T03:10:54.329Z,0
2017-04-14T03:12:05.369Z,0
2017-04-14T03:13:16.413Z,0
2017-04-14T03:14:27.442Z,0
2017-04-14T03:15:38.467Z,0
2017-04-14T03:16:49.524Z,0
2017-04-14T03:18:00.574Z,0
2017-04-14T03:19:11.809Z,0
2017-04-14T03:20:22.836Z,0
2017-04-14T03:21:33.870Z,0
2017-04-14T03:22:44.904Z,0
2017-04-14T03:23:55.946Z,0
2017-04-14T03:25:07.027Z,0
2017-04-14T03:26:18.261Z,0
2017-04-14T03:27:29.487Z,0
2017-04-14T03:28:40.507Z,0
2017-04-14T03:29:51.543Z,0
2017-04-14T03:31:02.590Z,0
2017-04-14T03:32:13.819Z,0
2017-04-14T03:33:25.095Z,0
2017-04-14T03:34:36.317Z,0
2017-04-14T03:35:47.544Z,0
2017-04-14T03:36:58.763Z,0
2017-04-14T03:38:09.794Z,0
2017-04-14T03:39:20.821Z,0
2017-04-14T03:40:31.894Z,0
2017-04-14T03:41:43.113Z,0
2017-04-14T03:42:54.146Z,0
2017-04-14T03:44:05.190Z,0
2017-04-14T03:45:16.222Z,0
2017-04-14T03:46:27.247Z,0
2017-04-14T03:47:38.477Z,0
2017-04-14T03:48:49.510Z,0
2017-04-14T03:50:00.536Z,0
2017-04-14T03:51:11.607Z,0
2017-04-14T03:52:22.628Z,0
2017-04-14T03:53:33.656Z,0
2017-04-14T03:54:44.752Z,0
2017-04-14T03:55:55.786Z,0
2017-04-14T03:57:06.805Z,0
2017-04-14T03:58:17.836Z,0
2017-04-14T03:59:28.857Z,0
2017-04-14T04:00:39.879Z,0
2017-04-14T04:01:50.949Z,0
2017-04-14T04:03:02.028Z,0
2017-04-14T04:04:13.046Z,0
2017-04-14T04:05:24.066Z,0
2017-04-14T04:06:35.099Z,0
2017-04-14T04:07:46.179Z,0
2017-04-14T04:08:57.209Z,0
2017-04-14T04:10:08.225Z,0
2017-04-14T04:11:19.252Z,0
2017-04-14T04:12:30.276Z,0
2017-04-14T04:13:41.313Z,0
2017-04-14T04:14:52.337Z,0
2017-04-14T04:16:03.805Z,0
2017-04-14T04:17:15.039Z,0
2017-04-14T04:18:26.327Z,0
2017-04-14T04:19:37.353Z,0
2017-04-14T04:20:48.429Z,0
2017-04-14T04:21:59.643Z,0
2017-04-14T04:23:10.664Z,0
2017-04-14T04:24:21.899Z,0
2017-04-14T04:25:32.966Z,5
2017-04-14T04:26:44.406Z,5
2017-04-14T04:27:55.631Z,5
2017-04-14T04:29:06.719Z,5
2017-04-14T04:30:17.749Z,5
2017-04-14T04:31:28.770Z,5
2017-04-14T04:32:39.797Z,10
2017-04-14T04:33:51.070Z,10
2017-04-14T04:35:02.306Z,10
2017-04-14T04:36:13.535Z,10
2017-04-14T04:37:24.567Z,15
2017-04-14T04:38:35.804Z,15
2017-04-14T04:39:46.830Z,15
2017-04-14T04:40:57.859Z,20
2017-04-14T04:42:08.889Z,20
2017-04-14T04:43:19.926Z,20
2017-04-14T04:44:30.963Z,25
2017-04-14T04:45:41.994Z,25
2017-04-14T04:46:53.030Z,30
2017-04-14T04:48:04.262Z,30
2017-04-14T04:49:15.303Z,35
2017-04-14T04:50:26.427Z,35
2017-04-14T04:51:37.446Z,40
2017-04-14T04:52:48.466Z,40
2017-04-14T04:53:59.494Z,45
2017-04-14T04:55:10.775Z,45
2017-04-14T04:56:21.797Z,50
2017-04-14T04:57:33.029Z,50
2017-04-14T04:58:44.067Z,55
2017-04-14T04:59:55.101Z,55
2017-04-14T05:01:06.339Z,60
2017-04-14T05:02:17.557Z,65
2017-04-14T05:03:28.592Z,70
2017-04-14T05:04:39.811Z,75
2017-04-14T05:05:51.037Z,80
2017-04-14T05:07:02.062Z,85
2017-04-14T05:08:13.298Z,90
2017-04-14T05:09:24.325Z,90
2017-04-14T05:10:35.597Z,105
2017-04-14T05:11:46.619Z,115
2017-04-14T05:12:57.646Z,115
2017-04-14T05:14:08.693Z,100
2017-04-14T05:15:19.911Z,120
2017-04-14T05:16:30.943Z,120
2017-04-14T05:17:41.972Z,140
2017-04-14T05:18:53.008Z,155
2017-04-14T05:20:04.037Z,165
2017-04-14T05:21:15.324Z,135
2017-04-14T05:22:26.755Z,155
2017-04-14T05:23:37.774Z,170
2017-04-14T05:24:48.796Z,160
2017-04-14T05:25:59.815Z,150
2017-04-14T05:27:10.837Z,150
2017-04-14T05:28:21.876Z,180
2017-04-14T05:29:33.112Z,195
2017-04-14T05:30:44.128Z,190
2017-04-14T05:31:55.220Z,200
2017-04-14T05:33:06.254Z,190
2017-04-14T05:34:17.284Z,195
2017-04-14T05:35:28.300Z,215
2017-04-14T05:36:39.324Z,225
2017-04-14T05:37:50.357Z,245
2017-04-14T05:39:01.585Z,300
2017-04-14T05:40:12.610Z,525
2017-04-14T05:41:23.647Z,375
2017-04-14T05:42:34.721Z,225
2017-04-14T05:43:45.759Z,265
2017-04-14T05:44:56.783Z,300
2017-04-14T05:46:07.817Z,240
2017-04-14T05:47:19.042Z,355
2017-04-14T05:48:30.280Z,460
2017-04-14T05:49:41.312Z,445
2017-04-14T05:50:52.366Z,490
2017-04-14T05:52:03.388Z,465
2017-04-14T05:53:14.678Z,500
2017-04-14T05:54:25.708Z,700
2017-04-14T05:55:36.750Z,700
2017-04-14T05:56:47.992Z,775
2017-04-14T05:57:59.430Z,515
2017-04-14T05:59:10.471Z,625
2017-04-14T06:00:21.494Z,700
2017-04-14T06:01:32.527Z,570
2017-04-14T06:02:43.558Z,410
2017-04-14T06:03:54.687Z,355
2017-04-14T06:05:05.721Z,460
2017-04-14T06:06:16.953Z,450
2017-04-14T06:07:27.984Z,345
2017-04-14T06:08:39.021Z,350
2017-04-14T06:09:50.111Z,355
2017-04-14T06:11:01.145Z,465
2017-04-14T06:12:12.176Z,590
2017-04-14T06:13:23.212Z,665
2017-04-14T06:14:34.687Z,645
2017-04-14T06:15:45.714Z,690
2017-04-14T06:16:56.785Z,635
2017-04-14T06:18:07.825Z,600
2017-04-14T06:19:18.863Z,560
2017-04-14T06:20:30.087Z,630
2017-04-14T06:21:41.119Z,580
2017-04-14T06:22:52.150Z,535
2017-04-14T06:24:03.188Z,595
2017-04-14T06:25:14.454Z,720
2017-04-14T06:26:25.493Z,735
2017-04-14T06:27:36.578Z,845
2017-04-14T06:28:47.614Z,880
2017-04-14T06:29:58.649Z,1045
2017-04-14T06:31:09.882Z,1240
2017-04-14T06:32:20.924Z,1250
2017-04-14T06:33:31.973Z,1135
2017-04-14T06:34:43.010Z,1290
2017-04-14T06:35:54.105Z,1365
2017-04-14T06:37:05.336Z,1495
2017-04-14T06:38:16.373Z,1615
2017-04-14T06:39:27.409Z,1620
2017-04-14T06:40:38.444Z,1625
2017-04-14T06:41:49.474Z,1655
2017-04-14T06:43:00.515Z,1845
2017-04-14T06:44:11.550Z,1915
2017-04-14T06:45:22.635Z,1930
2017-04-14T06:46:33.730Z,1945
2017-04-14T06:47:45.186Z,1830
2017-04-14T06:48:56.439Z,2015
2017-04-14T06:50:07.487Z,2025
2017-04-14T06:51:18.517Z,2100
2017-04-14T06:52:29.566Z,2075
2017-04-14T06:53:40.611Z,2040
2017-04-14T06:54:51.659Z,2035
2017-04-14T06:56:02.693Z,2100
2017-04-14T06:57:14.391Z,2110
2017-04-14T06:58:25.428Z,2160
2017-04-14T06:59:36.465Z,2220
2017-04-14T07:00:47.498Z,1975
2017-04-14T07:01:58.549Z,2055
2017-04-14T07:03:09.592Z,2230
2017-04-14T07:04:20.634Z,2115
2017-04-14T07:05:31.665Z,2195
2017-04-14T07:06:42.703Z,2285
2017-04-14T07:07:53.993Z,2325
2017-04-14T07:09:05.439Z,1750
2017-04-14T07:10:16.485Z,1130
2017-04-14T07:11:27.527Z,1070
2017-04-14T07:12:38.770Z,1145
2017-04-14T07:13:49.823Z,1170
2017-04-14T07:15:00.870Z,1350
2017-04-14T07:16:11.923Z,2075
2017-04-14T07:17:23.018Z,2270
2017-04-14T07:18:35.378Z,500
2017-04-14T07:19:46.634Z,370
2017-04-14T07:20:57.676Z,315
2017-04-14T07:22:08.737Z,285
2017-04-14T07:23:19.985Z,275
2017-04-14T07:24:31.046Z,255
2017-04-14T07:25:42.138Z,250
2017-04-14T07:26:53.187Z,245
2017-04-14T07:28:04.211Z,245
2017-04-14T07:29:15.260Z,250
2017-04-14T07:30:26.294Z,265
2017-04-14T07:31:37.538Z,280
2017-04-14T07:32:48.769Z,285
2017-04-14T07:34:00.252Z,290
2017-04-14T07:35:11.921Z,290
2017-04-14T07:36:22.956Z,290
2017-04-14T07:37:33.997Z,300
2017-04-14T07:38:49.728Z,310
2017-04-14T07:40:01.310Z,315
2017-04-14T07:41:12.343Z,320
2017-04-14T07:42:23.364Z,330
2017-04-14T07:43:34.618Z,320
2017-04-14T07:44:45.656Z,315
2017-04-14T07:45:56.692Z,310
2017-04-14T07:47:07.726Z,320
2017-04-14T07:48:18.771Z,330
2017-04-14T07:49:29.800Z,335
2017-04-14T07:50:40.874Z,335
2017-04-14T07:51:52.112Z,345
2017-04-14T07:53:03.143Z,345
2017-04-14T07:54:14.384Z,335
2017-04-14T07:55:25.409Z,325
2017-04-14T07:56:37.960Z,310
2017-04-14T07:57:48.998Z,305
2017-04-14T07:59:00.231Z,295
2017-04-14T08:00:11.270Z,275
2017-04-14T08:01:22.547Z,255
2017-04-14T08:02:33.576Z,240
2017-04-14T08:03:44.610Z,230
2017-04-14T08:04:55.649Z,225
2017-04-14T08:06:06.677Z,220
2017-04-14T08:07:17.960Z,220
2017-04-14T08:08:31.545Z,220
2017-04-14T08:09:42.855Z,220
2017-04-14T08:10:53.881Z,220
2017-04-14T08:12:05.122Z,220
2017-04-14T08:13:16.163Z,220
2017-04-14T08:14:27.441Z,215
2017-04-14T08:15:38.472Z,220
2017-04-14T08:16:49.549Z,220
2017-04-14T08:18:00.829Z,230
2017-04-14T08:19:11.853Z,230
2017-04-14T08:20:22.882Z,230
2017-04-14T08:21:33.926Z,240
2017-04-14T08:22:44.962Z,240
2017-04-14T08:23:56.290Z,245
2017-04-14T08:25:07.348Z,240
2017-04-14T08:26:18.377Z,240
2017-04-14T08:27:29.603Z,240
2017-04-14T08:28:41.253Z,240
2017-04-14T08:29:53.281Z,240
2017-04-14T08:31:04.305Z,245
2017-04-14T08:32:15.334Z,240
2017-04-14T08:33:26.359Z,240
2017-04-14T08:34:37.391Z,245
2017-04-14T08:35:48.754Z,250
2017-04-14T08:37:00.186Z,245
2017-04-14T08:38:11.892Z,250
2017-04-14T08:39:23.307Z,255
2017-04-14T08:40:34.335Z,260
2017-04-14T08:41:45.366Z,265
2017-04-14T08:42:56.413Z,260
2017-04-14T08:44:09.892Z,255
2017-04-14T08:45:21.004Z,260
2017-04-14T08:46:33.509Z,260
2017-04-14T08:47:44.881Z,260
2017-04-14T08:48:55.911Z,260
2017-04-14T08:50:06.990Z,255
2017-04-14T08:51:18.431Z,260
2017-04-14T08:52:29.870Z,250
2017-04-14T08:53:40.919Z,250
2017-04-14T08:54:52.371Z,250
2017-04-14T08:56:03.645Z,250
2017-04-14T08:57:14.680Z,255
2017-04-14T08:58:27.205Z,260
2017-04-14T08:59:38.566Z,265
2017-04-14T09:00:49.657Z,265
2017-04-14T09:02:00.691Z,265
2017-04-14T09:03:11.724Z,265
2017-04-14T09:04:22.762Z,260
2017-04-14T09:05:33.793Z,260
2017-04-14T09:06:44.864Z,260
2017-04-14T09:07:56.090Z,255
2017-04-14T09:09:07.127Z,255
2017-04-14T09:10:18.158Z,250
2017-04-14T09:11:29.228Z,245
2017-04-14T09:12:40.481Z,240
2017-04-14T09:13:51.557Z,235
2017-04-14T09:15:02.586Z,230
2017-04-14T09:16:13.830Z,225
2017-04-14T09:17:24.865Z,220
2017-04-14T09:18:35.892Z,215
2017-04-14T09:19:47.197Z,210
2017-04-14T09:20:58.673Z,210
2017-04-14T09:22:09.753Z,205
2017-04-14T09:23:20.995Z,205
2017-04-14T09:24:33.821Z,205
2017-04-14T09:25:44.930Z,205
2017-04-14T09:26:55.950Z,205
2017-04-14T09:28:06.978Z,205
2017-04-14T09:29:18.011Z,205
2017-04-14T09:30:29.038Z,205
2017-04-14T09:31:40.068Z,210
2017-04-14T09:32:51.147Z,210
2017-04-14T09:34:02.379Z,205
2017-04-14T09:35:13.409Z,200
2017-04-14T09:36:24.449Z,195
2017-04-14T09:37:35.487Z,195
2017-04-14T09:38:46.855Z,195
2017-04-14T09:39:58.692Z,195
2017-04-14T09:41:10.126Z,195
2017-04-14T09:42:21.152Z,195
2017-04-14T09:43:32.243Z,195
2017-04-14T09:44:43.467Z,200
2017-04-14T09:45:54.492Z,205
2017-04-14T09:47:05.519Z,210
2017-04-14T09:48:16.747Z,210
2017-04-14T09:49:28.837Z,210
2017-04-14T09:50:40.059Z,215
2017-04-14T09:51:51.081Z,215
2017-04-14T09:53:02.116Z,215
2017-04-14T09:54:13.185Z,215
2017-04-14T09:55:24.219Z,215
2017-04-14T09:56:35.250Z,215
2017-04-14T09:57:46.279Z,210
2017-04-14T09:58:57.523Z,210
2017-04-14T10:00:08.819Z,210
2017-04-14T10:01:19.838Z,215
2017-04-14T10:02:30.873Z,215
2017-04-14T10:03:41.897Z,220
2017-04-14T10:04:53.476Z,215
2017-04-14T10:06:04.532Z,220
2017-04-14T10:07:15.569Z,230
2017-04-14T10:08:26.614Z,220
2017-04-14T10:09:38.481Z,215
2017-04-14T10:10:50.612Z,210
2017-04-14T10:12:01.654Z,200
2017-04-14T10:13:12.674Z,190
2017-04-14T10:14:23.713Z,185
2017-04-14T10:15:34.750Z,180
2017-04-14T10:16:45.786Z,180
2017-04-14T10:17:56.826Z,180
2017-04-14T10:19:08.054Z,180
2017-04-14T10:20:19.092Z,180
2017-04-14T10:21:30.180Z,180
2017-04-14T10:22:41.225Z,180
2017-04-14T10:23:52.258Z,185
2017-04-14T10:25:03.305Z,180
2017-04-14T10:26:14.328Z,180
2017-04-14T10:27:25.552Z,185
2017-04-14T10:28:36.595Z,185
2017-04-14T10:29:47.619Z,195
2017-04-14T10:30:58.650Z,205
2017-04-14T10:32:09.939Z,210
2017-04-14T10:33:20.978Z,210
2017-04-14T10:34:32.014Z,215
2017-04-14T10:35:43.044Z,215
2017-04-14T10:36:54.066Z,220
2017-04-14T10:38:05.099Z,220
2017-04-14T10:39:16.135Z,225
2017-04-14T10:40:27.365Z,225
2017-04-14T10:41:38.414Z,225
2017-04-14T10:42:49.451Z,225
2017-04-14T10:44:00.489Z,225
2017-04-14T10:45:11.728Z,225
2017-04-14T10:46:22.763Z,230
2017-04-14T10:47:33.806Z,225
2017-04-14T10:48:44.839Z,225
2017-04-14T10:49:55.883Z,225
2017-04-14T10:51:06.919Z,230
2017-04-14T10:52:17.942Z,235
2017-04-14T10:53:29.228Z,245
2017-04-14T10:54:40.263Z,255
2017-04-14T10:55:51.497Z,260
2017-04-14T10:57:02.729Z,260
2017-04-14T10:58:13.753Z,270
2017-04-14T10:59:24.999Z,280
2017-04-14T11:00:36.025Z,290
2017-04-14T11:01:47.108Z,295
2017-04-14T11:02:58.149Z,295
2017-04-14T11:04:09.237Z,295
2017-04-14T11:05:20.267Z,300
2017-04-14T11:06:31.300Z,305
2017-04-14T11:07:42.325Z,310
2017-04-14T11:08:53.363Z,315
2017-04-14T11:10:04.405Z,320
2017-04-14T11:11:15.435Z,315
2017-04-14T11:12:26.874Z,315
2017-04-14T11:13:37.904Z,320
2017-04-14T11:14:49.382Z,320
2017-04-14T11:16:00.403Z,320
2017-04-14T11:17:11.443Z,315
2017-04-14T11:18:22.475Z,310
2017-04-14T11:19:33.563Z,305
2017-04-14T11:20:44.599Z,295
2017-04-14T11:21:55.638Z,290
2017-04-14T11:23:06.711Z,280
2017-04-14T11:24:17.751Z,280
2017-04-14T11:25:28.780Z,290
2017-04-14T11:26:39.806Z,300
2017-04-14T11:27:50.840Z,315
2017-04-14T11:29:01.868Z,330
2017-04-14T11:30:12.896Z,355
2017-04-14T11:31:23.927Z,375
2017-04-14T11:32:34.964Z,385
2017-04-14T11:33:46.202Z,390
2017-04-14T11:34:57.238Z,390
2017-04-14T11:36:08.525Z,380
2017-04-14T11:37:19.561Z,370
2017-04-14T11:38:30.598Z,365
2017-04-14T11:39:41.835Z,360
2017-04-14T11:40:52.931Z,355
2017-04-14T11:42:03.963Z,355
2017-04-14T11:43:15.009Z,355
2017-04-14T11:44:26.038Z,360
2017-04-14T11:45:37.095Z,365
2017-04-14T11:46:48.386Z,370
2017-04-14T11:47:59.612Z,370
2017-04-14T11:49:10.652Z,365
2017-04-14T11:50:21.692Z,345
2017-04-14T11:51:32.727Z,335
2017-04-14T11:52:43.764Z,320
2017-04-14T11:53:54.803Z,310
2017-04-14T11:55:05.847Z,305
2017-04-14T11:56:16.884Z,310
2017-04-14T11:57:28.175Z,315
2017-04-14T11:58:39.213Z,320
2017-04-14T11:59:50.445Z,330
2017-04-14T12:01:01.472Z,325
2017-04-14T12:02:12.511Z,340
2017-04-14T12:03:23.746Z,360
2017-04-14T12:04:34.779Z,375
2017-04-14T12:05:45.801Z,375
2017-04-14T12:06:56.819Z,370
2017-04-14T12:08:07.859Z,350
2017-04-14T12:09:18.901Z,350
2017-04-14T12:10:29.939Z,340
2017-04-14T12:11:40.969Z,335
2017-04-14T12:12:52.195Z,345
2017-04-14T12:14:03.235Z,355
2017-04-14T12:15:14.252Z,375
2017-04-14T12:16:25.293Z,405
2017-04-14T12:17:36.536Z,435
2017-04-14T12:18:47.632Z,460
2017-04-14T12:19:58.857Z,480
2017-04-14T12:21:09.889Z,485
2017-04-14T12:22:20.917Z,485
2017-04-14T12:23:31.947Z,480
2017-04-14T12:24:42.987Z,470
2017-04-14T12:25:54.015Z,455
2017-04-14T12:27:05.048Z,440
2017-04-14T12:28:16.084Z,425
2017-04-14T12:29:27.165Z,425
2017-04-14T12:30:38.207Z,430
2017-04-14T12:31:49.236Z,430
2017-04-14T12:33:00.271Z,430
2017-04-14T12:34:11.322Z,430
2017-04-14T12:35:22.570Z,430
2017-04-14T12:36:33.799Z,425
2017-04-14T12:37:44.828Z,415
2017-04-14T12:38:55.863Z,395
2017-04-14T12:40:06.956Z,395
2017-04-14T12:41:17.986Z,390
2017-04-14T12:42:29.023Z,380
2017-04-14T12:43:40.256Z,350
2017-04-14T12:44:51.284Z,335
2017-04-14T12:46:02.323Z,325
2017-04-14T12:47:13.347Z,310
2017-04-14T12:48:24.585Z,290
2017-04-14T12:49:35.623Z,280
2017-04-14T12:50:46.659Z,260
2017-04-14T12:51:57.700Z,240
2017-04-14T12:53:08.740Z,230
2017-04-14T12:54:19.770Z,220
2017-04-14T12:55:31.212Z,225
2017-04-14T12:56:42.450Z,225
2017-04-14T12:57:53.690Z,220
2017-04-14T12:59:04.728Z,220
2017-04-14T13:00:15.968Z,225
2017-04-14T13:01:27.305Z,220
2017-04-14T13:02:38.334Z,215
2017-04-14T13:03:49.364Z,220
2017-04-14T13:05:00.402Z,225
2017-04-14T13:06:11.426Z,240
2017-04-14T13:07:22.447Z,250
2017-04-14T13:08:33.489Z,240
2017-04-14T13:09:44.521Z,235
2017-04-14T13:10:55.549Z,235
2017-04-14T13:12:07.044Z,235
2017-04-14T13:13:18.078Z,235
2017-04-14T13:14:29.117Z,240
2017-04-14T13:15:40.146Z,230
2017-04-14T13:16:51.177Z,215
2017-04-14T13:18:02.211Z,200
2017-04-14T13:19:13.245Z,190
2017-04-14T13:20:24.276Z,180
2017-04-14T13:21:35.313Z,180
2017-04-14T13:22:46.587Z,180
2017-04-14T13:23:57.837Z,175
2017-04-14T13:25:08.869Z,170
2017-04-14T13:26:19.909Z,160
2017-04-14T13:27:30.944Z,155
2017-04-14T13:28:42.020Z,160
2017-04-14T13:29:53.057Z,160
2017-04-14T13:31:04.095Z,160
2017-04-14T13:32:15.122Z,155
2017-04-14T13:33:26.152Z,145
2017-04-14T13:34:37.188Z,145
2017-04-14T13:35:48.223Z,145
2017-04-14T13:36:59.252Z,145
2017-04-14T13:38:10.281Z,145
2017-04-14T13:39:21.362Z,160
2017-04-14T13:40:32.610Z,160
2017-04-14T13:41:43.853Z,165
2017-04-14T13:42:54.882Z,170
2017-04-14T13:44:05.920Z,180
2017-04-14T13:45:17.009Z,190
2017-04-14T13:46:28.050Z,200
2017-04-14T13:47:39.085Z,200
2017-04-14T13:48:50.128Z,195
2017-04-14T13:50:01.212Z,190
2017-04-14T13:51:12.244Z,190
2017-04-14T13:52:23.468Z,190
2017-04-14T13:53:34.505Z,190
2017-04-14T13:54:45.538Z,190
2017-04-14T13:55:56.567Z,185
2017-04-14T13:57:07.594Z,180
2017-04-14T13:58:18.633Z,185
2017-04-14T13:59:29.661Z,185
2017-04-14T14:00:40.688Z,185
2017-04-14T14:01:51.710Z,185
2017-04-14T14:03:02.747Z,190
2017-04-14T14:04:13.798Z,185
2017-04-14T14:05:25.084Z,175
2017-04-14T14:06:36.316Z,165
2017-04-14T14:07:47.352Z,160
2017-04-14T14:08:58.590Z,155
2017-04-14T14:10:09.643Z,155
2017-04-14T14:11:20.673Z,145
2017-04-14T14:12:31.707Z,140
2017-04-14T14:13:42.751Z,130
2017-04-14T14:14:53.775Z,120
2017-04-14T14:16:04.811Z,120
2017-04-14T14:17:16.040Z,115
2017-04-14T14:18:27.069Z,115
2017-04-14T14:19:38.103Z,115
2017-04-14T14:20:49.337Z,115
2017-04-14T14:22:00.419Z,105
2017-04-14T14:23:11.451Z,105
2017-04-14T14:24:22.490Z,110
2017-04-14T14:25:33.522Z,110
2017-04-14T14:26:44.539Z,125
2017-04-14T14:27:55.571Z,135
2017-04-14T14:29:06.598Z,145
2017-04-14T14:30:17.622Z,145
2017-04-14T14:31:28.669Z,155
2017-04-14T14:32:39.944Z,160
2017-04-14T14:33:50.985Z,160
2017-04-14T14:35:02.017Z,160
2017-04-14T14:36:13.050Z,160
2017-04-14T14:37:24.289Z,155
2017-04-14T14:38:35.328Z,150
2017-04-14T14:39:46.359Z,140
2017-04-14T14:40:57.394Z,130
2017-04-14T14:42:08.431Z,130
2017-04-14T14:43:19.718Z,135
2017-04-14T14:44:30.950Z,135
2017-04-14T14:45:41.985Z,135
2017-04-14T14:46:53.022Z,135
2017-04-14T14:48:04.061Z,140
2017-04-14T14:49:15.144Z,140
2017-04-14T14:50:26.177Z,145
2017-04-14T14:51:37.210Z,150
2017-04-14T14:52:48.295Z,145
2017-04-14T14:53:59.348Z,135
2017-04-14T14:55:10.394Z,125
2017-04-14T14:56:21.429Z,120
2017-04-14T14:57:32.458Z,120
2017-04-14T14:58:43.481Z,115
2017-04-14T14:59:54.565Z,115
2017-04-14T15:01:05.597Z,115
2017-04-14T15:02:16.632Z,115
2017-04-14T15:03:27.666Z,115
2017-04-14T15:04:38.696Z,110
2017-04-14T15:05:49.786Z,110
2017-04-14T15:07:00.854Z,105
2017-04-14T15:08:12.081Z,100
2017-04-14T15:09:23.121Z,95
2017-04-14T15:10:34.401Z,90
2017-04-14T15:11:45.676Z,85
2017-04-14T15:12:56.717Z,80
2017-04-14T15:14:07.748Z,80
2017-04-14T15:15:18.785Z,75
2017-04-14T15:16:29.808Z,70
2017-04-14T15:17:40.842Z,65
2017-04-14T15:18:51.871Z,65
2017-04-14T15:20:02.904Z,60
2017-04-14T15:21:13.974Z,60
2017-04-14T15:22:24.997Z,60
2017-04-14T15:23:36.036Z,55
2017-04-14T15:24:47.058Z,55
2017-04-14T15:25:58.092Z,50
2017-04-14T15:27:09.129Z,45
2017-04-14T15:28:20.375Z,45
2017-04-14T15:29:31.432Z,40
2017-04-14T15:30:42.475Z,35
2017-04-14T15:31:53.499Z,30
2017-04-14T15:33:04.585Z,25
2017-04-14T15:34:15.604Z,25
2017-04-14T15:35:26.849Z,25
2017-04-14T15:36:37.882Z,25
2017-04-14T15:37:48.904Z,25
2017-04-14T15:38:59.942Z,30
2017-04-14T15:40:10.962Z,30
2017-04-14T15:41:22.449Z,35
2017-04-14T15:42:33.481Z,35
2017-04-14T15:43:44.520Z,30
2017-04-14T15:44:55.559Z,30
2017-04-14T15:46:06.787Z,30
2017-04-14T15:47:17.854Z,30
2017-04-14T15:48:28.884Z,40
2017-04-14T15:49:39.946Z,40
2017-04-14T15:50:50.972Z,40
2017-04-14T15:52:02.053Z,45
2017-04-14T15:53:13.090Z,50
2017-04-14T15:54:24.321Z,50
2017-04-14T15:55:35.351Z,55
2017-04-14T15:56:46.390Z,60
2017-04-14T15:57:57.625Z,60
2017-04-14T15:59:08.664Z,65
2017-04-14T16:00:19.699Z,70
2017-04-14T16:01:30.794Z,70
2017-04-14T16:02:41.835Z,70
2017-04-14T16:03:52.883Z,70
2017-04-14T16:05:04.132Z,65
2017-04-14T16:06:15.163Z,65
2017-04-14T16:07:26.237Z,60
2017-04-14T16:08:37.268Z,60
2017-04-14T16:09:48.299Z,65
2017-04-14T16:10:59.330Z,70
2017-04-14T16:12:10.379Z,65
2017-04-14T16:13:21.423Z,70
2017-04-14T16:14:32.458Z,70
2017-04-14T16:15:43.498Z,70
2017-04-14T16:16:54.744Z,60
2017-04-14T16:18:05.772Z,50
2017-04-14T16:19:16.807Z,45
2017-04-14T16:20:27.832Z,45
2017-04-14T16:21:39.069Z,45
2017-04-14T16:22:50.102Z,45
2017-04-14T16:24:01.136Z,45
2017-04-14T16:25:12.169Z,45
2017-04-14T16:26:23.203Z,40
2017-04-14T16:27:34.432Z,35
2017-04-14T16:28:45.717Z,35
2017-04-14T16:29:56.755Z,35
2017-04-14T16:31:07.792Z,35
2017-04-14T16:32:18.836Z,35
2017-04-14T16:33:29.857Z,40
2017-04-14T16:34:41.293Z,40
2017-04-14T16:35:52.310Z,40
2017-04-14T16:37:03.342Z,40
2017-04-14T16:38:14.387Z,40
2017-04-14T16:39:25.532Z,40
2017-04-14T16:40:36.565Z,40